Decoded Metar for UKDD (DNEPROPETROVSK in UKRAINE) (IATA:DNK) | Meteo·Mobile Aviation Weather
aviador You're here:

UKDD Decoded Metar

DNEPROPETROVSK in UKRAINE
Report Time2018-09-18 13:00:00
UTC Time2018-09-18 13:12:46
Flight Rules vfr VFR
Wind310° at 8 kt
W.Decomp.*RWY 26: 5.9 kt HW 5.5 kt RCW
W.Rank310° ranks 25
Current wind is below 310° avg. (10.4)
Visibility9999 m
Phenomena:N/A
Clouds:N/A
Expected CloudBase > 5,200 ft AGL from Temp-Dew spread
CeilingNone
Temp22°C (ISA +8)
Dew Point09°C (44% RH)
AAT18.9°C
QNH1022 hPa
Density Alt1,273 ft
Elevation489 ft
Report Wrong Elevation
Raw Report
UKDD 181300Z 31004MPS 260V340 CAVOK 22/09 Q1022 R26/090070
NOSIG=

Extra information for UKDD:More info

Metar Taf Metar & Taf Last 4 Metars F.Rules Stats Wind Profile Meteogram Temp Stats Airport Information Weather charts Add Link Nearby VenuesMetar ALERT Operation Metar Decoded Social comments